createdAt,value
2022-12-25T00:01:37.542Z,81.96
2022-12-25T00:04:05.505Z,81.89
2022-12-25T00:06:33.304Z,81.80
2022-12-25T00:09:04.504Z,82.00
2022-12-25T00:11:32.381Z,81.98
2022-12-25T00:14:00.761Z,81.98
2022-12-25T00:16:28.768Z,82.02
2022-12-25T00:18:58.333Z,81.95
2022-12-25T00:21:26.274Z,82.08
2022-12-25T00:23:54.787Z,82.04
2022-12-25T00:26:23.003Z,82.19
2022-12-25T00:28:52.960Z,82.05
2022-12-25T00:31:21.636Z,82.05
2022-12-25T00:33:50.760Z,82.08
2022-12-25T00:36:21.108Z,82.12
2022-12-25T00:38:49.645Z,82.04
2022-12-25T00:41:39.751Z,82.06
2022-12-25T00:44:07.700Z,82.06
2022-12-25T00:46:37.427Z,81.99
2022-12-25T00:49:05.619Z,81.97
2022-12-25T00:51:33.554Z,81.92
2022-12-25T00:54:01.437Z,82.02
2022-12-25T00:56:30.400Z,82.23
2022-12-25T00:58:58.410Z,82.06
2022-12-25T01:01:26.455Z,81.98
2022-12-25T01:03:54.878Z,82.04
2022-12-25T01:06:22.855Z,82.00
2022-12-25T01:09:09.394Z,82.09
2022-12-25T01:11:39.899Z,82.08
2022-12-25T01:14:07.837Z,82.01
2022-12-25T01:16:35.665Z,82.19
2022-12-25T01:19:04.921Z,82.20
2022-12-25T01:21:32.676Z,82.08
2022-12-25T01:24:01.165Z,82.04
2022-12-25T01:26:29.742Z,81.92
2022-12-25T01:28:57.866Z,82.02
2022-12-25T01:31:28.038Z,82.01
2022-12-25T01:33:58.041Z,82.10
2022-12-25T01:36:26.431Z,81.98
2022-12-25T01:38:55.111Z,82.17
2022-12-25T01:41:23.813Z,82.06
2022-12-25T01:44:00.408Z,82.06
2022-12-25T01:46:28.605Z,82.02
2022-12-25T01:48:57.507Z,82.17
2022-12-25T01:51:26.497Z,82.01
2022-12-25T01:53:55.885Z,81.98
2022-12-25T01:56:25.799Z,82.15
2022-12-25T01:58:54.289Z,82.05
2022-12-25T02:01:22.125Z,82.11
2022-12-25T02:03:51.169Z,82.04
2022-12-25T02:06:21.490Z,81.96
2022-12-25T02:08:50.565Z,81.95
2022-12-25T02:11:33.127Z,81.90
2022-12-25T02:14:02.764Z,81.84
2022-12-25T02:16:57.670Z,81.77
2022-12-25T02:19:32.155Z,81.94
2022-12-25T02:22:06.692Z,82.04
2022-12-25T02:24:51.051Z,81.89
2022-12-25T02:27:28.152Z,81.94
2022-12-25T02:30:00.754Z,81.84
2022-12-25T02:32:30.712Z,81.89
2022-12-25T02:35:01.929Z,82.02
2022-12-25T02:37:35.062Z,81.93
2022-12-25T02:40:09.955Z,82.01
2022-12-25T02:43:01.228Z,81.89
2022-12-25T02:45:50.902Z,81.85
2022-12-25T02:48:38.741Z,81.87
2022-12-25T02:51:29.774Z,81.92
2022-12-25T02:54:21.052Z,81.89
2022-12-25T02:57:09.016Z,81.93
2022-12-25T02:59:58.038Z,82.06
2022-12-25T03:02:58.172Z,82.14
2022-12-25T03:05:44.920Z,82.26
2022-12-25T03:08:14.655Z,82.24
2022-12-25T03:11:03.544Z,82.22
2022-12-25T03:13:34.388Z,82.24
2022-12-25T03:16:20.656Z,82.14
2022-12-25T03:18:49.399Z,82.12
2022-12-25T03:21:35.735Z,82.20
2022-12-25T03:24:22.809Z,82.14
2022-12-25T03:26:59.596Z,82.12
2022-12-25T03:29:48.623Z,81.91
2022-12-25T03:32:19.388Z,82.00
2022-12-25T03:35:11.475Z,82.11
2022-12-25T03:38:02.754Z,81.96
2022-12-25T03:40:47.656Z,81.90
2022-12-25T03:43:39.818Z,81.97
2022-12-25T03:46:30.446Z,82.05
2022-12-25T03:49:21.831Z,82.13
2022-12-25T03:52:10.177Z,82.18
2022-12-25T03:54:58.840Z,82.12
2022-12-25T03:57:45.531Z,82.08
2022-12-25T04:00:39.644Z,82.12
2022-12-25T04:03:26.156Z,82.15
2022-12-25T04:06:11.925Z,82.10
2022-12-25T04:09:01.611Z,82.06
2022-12-25T04:11:47.727Z,82.09
2022-12-25T04:14:34.714Z,82.13
2022-12-25T04:17:21.033Z,82.05
2022-12-25T04:20:08.136Z,82.02
2022-12-25T04:22:54.395Z,82.10
2022-12-25T04:25:41.180Z,82.02
2022-12-25T04:28:29.660Z,82.24
2022-12-25T04:31:19.190Z,82.15
2022-12-25T04:34:05.564Z,82.25
2022-12-25T04:36:34.426Z,82.29
2022-12-25T04:39:02.230Z,82.54
2022-12-25T04:41:30.128Z,82.57
2022-12-25T04:43:58.081Z,82.21
2022-12-25T04:46:28.941Z,82.16
2022-12-25T04:48:57.387Z,81.99
2022-12-25T04:51:26.229Z,82.06
2022-12-25T04:53:54.094Z,82.25
2022-12-25T04:56:22.207Z,82.34
2022-12-25T04:58:50.412Z,82.17
2022-12-25T05:01:18.349Z,82.13
2022-12-25T05:03:50.721Z,82.14
2022-12-25T05:06:18.802Z,82.25
2022-12-25T05:08:46.924Z,82.30
2022-12-25T05:11:15.455Z,82.33
2022-12-25T05:13:44.370Z,82.07
2022-12-25T05:16:18.225Z,82.08
2022-12-25T05:18:48.215Z,82.14
2022-12-25T05:21:16.572Z,82.32
2022-12-25T05:23:48.140Z,82.05
2022-12-25T05:26:16.691Z,82.10
2022-12-25T05:28:44.608Z,82.25
2022-12-25T05:31:15.288Z,82.41
2022-12-25T05:33:43.478Z,82.30
2022-12-25T05:36:12.776Z,82.14
2022-12-25T05:38:40.941Z,81.99
2022-12-25T05:41:09.369Z,81.96
2022-12-25T05:43:39.015Z,82.02
2022-12-25T05:46:07.976Z,81.99
2022-12-25T05:48:36.718Z,81.88
2022-12-25T05:51:05.805Z,81.79
2022-12-25T05:53:34.043Z,82.09
2022-12-25T05:56:03.196Z,82.11
2022-12-25T05:58:31.484Z,82.26
2022-12-25T06:00:59.578Z,82.36
2022-12-25T06:03:27.803Z,82.44
2022-12-25T06:05:55.781Z,82.51
2022-12-25T06:08:23.799Z,82.63
2022-12-25T06:10:53.156Z,82.81
2022-12-25T06:13:21.306Z,82.68
2022-12-25T06:15:49.176Z,82.59
2022-12-25T06:18:17.143Z,82.51
2022-12-25T06:20:46.540Z,82.41
2022-12-25T06:23:14.736Z,82.40
2022-12-25T06:25:43.329Z,82.11
2022-12-25T06:28:11.338Z,81.88
2022-12-25T06:30:41.321Z,81.85
2022-12-25T06:33:09.300Z,81.94
2022-12-25T06:35:40.254Z,82.06
2022-12-25T06:38:08.188Z,81.89
2022-12-25T06:40:37.311Z,82.18
2022-12-25T06:43:08.439Z,82.21
2022-12-25T06:45:36.567Z,82.12
2022-12-25T06:48:04.848Z,81.88
2022-12-25T06:50:33.003Z,81.91
2022-12-25T06:53:00.895Z,82.28
2022-12-25T06:55:29.065Z,82.24
2022-12-25T06:57:59.529Z,82.05
2022-12-25T07:00:27.590Z,82.12
2022-12-25T07:02:57.211Z,81.93
2022-12-25T07:05:25.131Z,81.96
2022-12-25T07:07:53.183Z,81.90
2022-12-25T07:10:21.289Z,81.86
2022-12-25T07:12:49.078Z,82.05
2022-12-25T07:15:17.555Z,81.97
2022-12-25T07:17:45.728Z,81.91
2022-12-25T07:20:13.525Z,81.85
2022-12-25T07:22:41.595Z,81.83
2022-12-25T07:25:09.817Z,81.80
2022-12-25T07:27:39.829Z,81.88
2022-12-25T07:30:11.525Z,81.73
2022-12-25T07:32:40.954Z,81.69
2022-12-25T07:35:12.711Z,81.92
2022-12-25T07:37:40.669Z,81.90
2022-12-25T07:40:09.855Z,81.96
2022-12-25T07:42:37.749Z,81.97
2022-12-25T07:45:09.734Z,81.93
2022-12-25T07:47:37.577Z,81.94
2022-12-25T07:50:08.204Z,82.14
2022-12-25T07:52:43.653Z,82.14
2022-12-25T07:55:12.816Z,81.78
2022-12-25T07:57:40.690Z,81.72
2022-12-25T08:00:09.951Z,81.79
2022-12-25T08:02:41.750Z,81.66
2022-12-25T08:05:10.265Z,81.68
2022-12-25T08:07:40.037Z,81.78
2022-12-25T08:10:08.506Z,81.75
2022-12-25T08:12:36.295Z,81.75
2022-12-25T08:15:04.801Z,81.95
2022-12-25T08:17:34.149Z,82.08
2022-12-25T08:20:01.934Z,81.74
2022-12-25T08:22:29.741Z,81.94
2022-12-25T08:24:57.790Z,81.80
2022-12-25T08:27:25.566Z,82.08
2022-12-25T08:29:53.334Z,81.94
2022-12-25T08:32:21.022Z,81.73
2022-12-25T08:34:49.075Z,81.89
2022-12-25T08:37:17.000Z,81.80
2022-12-25T08:39:44.932Z,82.23
2022-12-25T08:42:14.801Z,81.89
2022-12-25T08:44:42.663Z,81.95
2022-12-25T08:47:10.623Z,81.81
2022-12-25T08:49:39.735Z,81.98
2022-12-25T08:52:07.718Z,81.90
2022-12-25T08:54:35.969Z,81.96
2022-12-25T08:57:05.676Z,81.96
2022-12-25T08:59:33.366Z,81.99
2022-12-25T09:02:01.516Z,82.02
2022-12-25T09:04:30.351Z,81.82
2022-12-25T09:06:58.235Z,81.84
2022-12-25T09:09:27.280Z,81.71
2022-12-25T09:11:55.041Z,81.76
2022-12-25T09:14:25.256Z,81.68
2022-12-25T09:16:53.601Z,81.77
2022-12-25T09:19:21.607Z,81.76
2022-12-25T09:21:49.625Z,81.73
2022-12-25T09:24:17.545Z,81.79
2022-12-25T09:26:45.232Z,81.78
2022-12-25T09:29:14.230Z,81.86
2022-12-25T09:31:42.211Z,81.84
2022-12-25T09:34:12.604Z,81.90
2022-12-25T09:36:45.376Z,81.73
2022-12-25T09:39:13.021Z,81.73
2022-12-25T09:41:49.426Z,81.76
2022-12-25T09:44:19.055Z,81.86
2022-12-25T09:46:50.234Z,81.84
2022-12-25T09:49:21.822Z,81.83
2022-12-25T09:51:53.176Z,81.94
2022-12-25T09:54:27.085Z,81.87
2022-12-25T09:56:54.863Z,81.84
2022-12-25T09:59:25.120Z,81.65
2022-12-25T10:02:00.952Z,81.68
2022-12-25T10:04:40.501Z,81.81
2022-12-25T10:07:16.543Z,81.82
2022-12-25T10:09:53.493Z,81.73
2022-12-25T10:12:28.122Z,81.71
2022-12-25T10:15:02.831Z,81.82
2022-12-25T10:17:37.291Z,81.96
2022-12-25T10:20:10.342Z,82.18
2022-12-25T10:22:40.741Z,81.93
2022-12-25T10:25:14.720Z,82.02
2022-12-25T10:27:43.307Z,81.88
2022-12-25T10:30:16.006Z,81.90
2022-12-25T10:32:44.450Z,81.91
2022-12-25T10:35:13.838Z,81.95
2022-12-25T10:37:46.299Z,81.96
2022-12-25T10:40:27.829Z,81.90
2022-12-25T10:42:57.543Z,81.83
2022-12-25T10:45:25.512Z,81.76
2022-12-25T10:48:06.799Z,81.76
2022-12-25T10:50:42.346Z,81.70
2022-12-25T10:53:18.303Z,81.73
2022-12-25T10:55:54.281Z,81.79
2022-12-25T10:58:22.003Z,81.78
2022-12-25T11:01:00.553Z,81.75
2022-12-25T11:03:30.766Z,81.76
2022-12-25T11:05:58.822Z,81.67
2022-12-25T11:08:28.576Z,81.70
2022-12-25T11:10:57.725Z,81.73
2022-12-25T11:13:26.514Z,81.87
2022-12-25T11:16:05.680Z,81.85
2022-12-25T11:18:36.126Z,81.83
2022-12-25T11:21:14.198Z,81.90
2022-12-25T11:23:46.421Z,81.96
2022-12-25T11:26:16.866Z,81.92
2022-12-25T11:28:45.486Z,82.02
2022-12-25T11:31:15.326Z,81.97
2022-12-25T11:33:45.830Z,81.95
2022-12-25T11:36:17.764Z,81.78
2022-12-25T11:38:45.559Z,81.78
2022-12-25T11:41:19.828Z,81.83
2022-12-25T11:43:50.475Z,81.75
2022-12-25T11:46:21.798Z,81.81
2022-12-25T11:48:55.759Z,81.97
2022-12-25T11:51:25.528Z,82.11
2022-12-25T11:53:55.919Z,81.82
2022-12-25T11:56:30.593Z,81.76
2022-12-25T11:59:02.417Z,82.23
2022-12-25T12:01:38.562Z,82.49
2022-12-25T12:04:09.099Z,82.51
2022-12-25T12:06:45.649Z,82.62
2022-12-25T12:09:23.339Z,82.45
2022-12-25T12:11:58.574Z,82.32
2022-12-25T12:14:34.750Z,82.07
2022-12-25T12:17:02.601Z,82.05
2022-12-25T12:19:34.007Z,81.92
2022-12-25T12:22:03.243Z,81.99
2022-12-25T12:24:35.000Z,82.01
2022-12-25T12:27:05.159Z,81.93
2022-12-25T12:29:38.760Z,82.01
2022-12-25T12:32:21.337Z,81.99
2022-12-25T12:34:50.034Z,81.90
2022-12-25T12:37:24.847Z,81.81
2022-12-25T12:39:54.201Z,81.72
2022-12-25T12:42:25.632Z,81.66
2022-12-25T12:44:54.459Z,81.82
2022-12-25T12:47:30.180Z,82.07
2022-12-25T12:49:59.989Z,82.05
2022-12-25T12:52:32.165Z,81.92
2022-12-25T12:55:01.424Z,81.93
2022-12-25T12:57:32.259Z,82.19
2022-12-25T13:00:06.466Z,82.36
2022-12-25T13:02:51.983Z,82.51
2022-12-25T13:05:34.016Z,82.29
2022-12-25T13:08:09.508Z,82.27
2022-12-25T13:10:39.948Z,82.15
2022-12-25T13:13:13.844Z,82.43
2022-12-25T13:15:45.937Z,82.36
2022-12-25T13:18:21.262Z,82.34
2022-12-25T13:20:55.160Z,82.30
2022-12-25T13:23:25.426Z,82.23
2022-12-25T13:25:54.999Z,82.24
2022-12-25T13:28:27.501Z,82.13
2022-12-25T13:31:02.189Z,82.06
2022-12-25T13:33:30.617Z,82.03
2022-12-25T13:35:58.655Z,82.37
2022-12-25T13:38:27.751Z,82.50
2022-12-25T13:41:14.980Z,82.60
2022-12-25T13:43:45.287Z,82.41
2022-12-25T13:46:14.181Z,82.51
2022-12-25T13:48:44.843Z,82.55
2022-12-25T13:51:16.594Z,82.41
2022-12-25T13:53:45.729Z,82.38
2022-12-25T13:56:15.224Z,82.34
2022-12-25T13:58:47.228Z,82.41
2022-12-25T14:01:19.816Z,82.21
2022-12-25T14:03:48.036Z,82.36
2022-12-25T14:06:18.231Z,82.51
2022-12-25T14:08:47.120Z,82.27
2022-12-25T14:11:17.933Z,82.22
2022-12-25T14:13:47.038Z,82.11
2022-12-25T14:16:17.103Z,82.18
2022-12-25T14:18:51.485Z,82.30
2022-12-25T14:21:24.269Z,82.31
2022-12-25T14:23:52.159Z,82.32
2022-12-25T14:26:22.011Z,82.11
2022-12-25T14:28:51.556Z,82.04
2022-12-25T14:31:19.980Z,82.15
2022-12-25T14:33:49.722Z,81.98
2022-12-25T14:36:18.481Z,81.88
2022-12-25T14:38:55.143Z,82.17
2022-12-25T14:41:34.284Z,82.03
2022-12-25T14:44:03.255Z,82.01
2022-12-25T14:46:37.329Z,82.04
2022-12-25T14:49:06.510Z,82.22
2022-12-25T14:51:38.117Z,82.26
2022-12-25T14:54:14.451Z,82.32
2022-12-25T14:56:46.524Z,82.29
2022-12-25T14:59:16.984Z,82.37
2022-12-25T15:01:49.588Z,82.38
2022-12-25T15:04:18.228Z,82.39
2022-12-25T15:06:53.077Z,82.22
2022-12-25T15:09:21.449Z,82.07
2022-12-25T15:11:49.829Z,82.05
2022-12-25T15:14:18.293Z,82.02
2022-12-25T15:16:47.405Z,82.11
2022-12-25T15:19:21.894Z,82.11
2022-12-25T15:21:53.106Z,82.00
2022-12-25T15:24:21.146Z,82.11
2022-12-25T15:26:48.902Z,81.94
2022-12-25T15:29:23.687Z,81.97
2022-12-25T15:32:05.055Z,81.98
2022-12-25T15:34:32.962Z,82.02
2022-12-25T15:37:01.036Z,81.95
2022-12-25T15:39:29.325Z,82.09
2022-12-25T15:42:12.984Z,82.06
2022-12-25T15:44:41.849Z,82.04
2022-12-25T15:47:10.863Z,82.00
2022-12-25T15:49:41.680Z,82.13
2022-12-25T15:52:13.651Z,82.12
2022-12-25T15:54:41.930Z,82.09
2022-12-25T15:57:16.305Z,82.15
2022-12-25T15:59:45.054Z,82.13
2022-12-25T16:02:14.755Z,82.20
2022-12-25T16:04:44.318Z,82.11
2022-12-25T16:07:15.239Z,82.18
2022-12-25T16:09:45.907Z,82.15
2022-12-25T16:12:13.891Z,82.24
2022-12-25T16:14:41.685Z,82.13
2022-12-25T16:17:12.579Z,82.16
2022-12-25T16:19:48.731Z,82.12
2022-12-25T16:22:19.825Z,82.14
2022-12-25T16:24:48.149Z,82.22
2022-12-25T16:27:15.926Z,82.23
2022-12-25T16:29:44.668Z,82.26
2022-12-25T16:32:12.985Z,82.18
2022-12-25T16:34:44.123Z,82.07
2022-12-25T16:37:13.252Z,82.27
2022-12-25T16:39:41.291Z,82.04
2022-12-25T16:42:11.064Z,82.20
2022-12-25T16:44:39.191Z,82.15
2022-12-25T16:47:08.226Z,82.31
2022-12-25T16:49:35.991Z,82.28
2022-12-25T16:52:04.144Z,82.18
2022-12-25T16:54:31.903Z,82.07
2022-12-25T16:56:59.780Z,82.00
2022-12-25T16:59:28.541Z,82.07
2022-12-25T17:01:56.721Z,82.00
2022-12-25T17:04:28.179Z,82.07
2022-12-25T17:06:57.482Z,82.11
2022-12-25T17:09:25.426Z,82.19
2022-12-25T17:11:53.151Z,82.11
2022-12-25T17:14:20.865Z,82.08
2022-12-25T17:16:49.018Z,82.01
2022-12-25T17:19:17.927Z,82.02
2022-12-25T17:21:46.676Z,82.16
2022-12-25T17:24:14.691Z,82.08
2022-12-25T17:26:44.130Z,82.05
2022-12-25T17:29:14.761Z,82.00
2022-12-25T17:31:46.566Z,82.04
2022-12-25T17:34:14.645Z,81.97
2022-12-25T17:36:42.429Z,82.01
2022-12-25T17:39:12.099Z,82.10
2022-12-25T17:41:40.453Z,82.12
2022-12-25T17:44:08.699Z,82.03
2022-12-25T17:46:37.642Z,82.00
2022-12-25T17:49:05.545Z,82.05
2022-12-25T17:51:33.685Z,81.98
2022-12-25T17:54:02.837Z,82.06
2022-12-25T17:56:31.585Z,82.03
2022-12-25T17:59:02.756Z,82.02
2022-12-25T18:01:36.968Z,82.00
2022-12-25T18:04:05.644Z,81.98
2022-12-25T18:06:34.794Z,81.96
2022-12-25T18:09:05.495Z,81.95
2022-12-25T18:11:33.954Z,81.93
2022-12-25T18:14:05.757Z,82.04
2022-12-25T18:16:36.357Z,81.93
2022-12-25T18:19:04.291Z,82.04
2022-12-25T18:21:32.135Z,81.98
2022-12-25T18:24:05.141Z,81.94
2022-12-25T18:26:35.871Z,82.02
2022-12-25T18:29:04.204Z,82.06
2022-12-25T18:31:36.086Z,82.06
2022-12-25T18:34:04.848Z,81.95
2022-12-25T18:36:32.763Z,81.98
2022-12-25T18:39:00.868Z,81.88
2022-12-25T18:41:52.105Z,82.01
2022-12-25T18:44:47.871Z,82.04
2022-12-25T18:47:24.902Z,81.94
2022-12-25T18:49:52.878Z,82.09
2022-12-25T18:55:04.553Z,82.02
2022-12-25T18:57:32.687Z,82.02
2022-12-25T19:00:16.936Z,81.96
2022-12-25T19:02:50.297Z,81.90
2022-12-25T19:05:32.190Z,82.02
2022-12-25T19:08:00.058Z,81.99
2022-12-25T19:10:29.881Z,82.01
2022-12-25T19:13:01.232Z,82.06
2022-12-25T19:15:29.339Z,81.97
2022-12-25T19:18:00.236Z,81.98
2022-12-25T19:20:28.517Z,81.95
2022-12-25T19:22:56.365Z,81.88
2022-12-25T19:25:24.133Z,82.06
2022-12-25T19:27:51.995Z,82.01
2022-12-25T19:30:19.965Z,82.08
2022-12-25T19:32:48.169Z,82.25
2022-12-25T19:35:16.499Z,82.01
2022-12-25T19:37:44.553Z,82.10
2022-12-25T19:40:13.189Z,82.11
2022-12-25T19:42:41.027Z,82.12
2022-12-25T19:45:09.687Z,82.05
2022-12-25T19:47:37.709Z,82.04
2022-12-25T19:50:06.636Z,81.93
2022-12-25T19:52:34.378Z,82.08
2022-12-25T19:55:02.203Z,82.08
2022-12-25T19:57:30.222Z,82.04
2022-12-25T19:59:58.023Z,81.92
2022-12-25T20:02:25.958Z,82.04
2022-12-25T20:04:54.532Z,81.96
2022-12-25T20:07:22.530Z,82.05
2022-12-25T20:09:52.223Z,82.03
2022-12-25T20:12:20.311Z,82.01
2022-12-25T20:14:48.916Z,82.06
2022-12-25T20:17:16.768Z,82.10
2022-12-25T20:19:46.289Z,82.12
2022-12-25T20:22:15.519Z,82.00
2022-12-25T20:24:44.032Z,82.07
2022-12-25T20:27:16.435Z,82.14
2022-12-25T20:29:45.283Z,82.11
2022-12-25T20:32:14.896Z,82.03
2022-12-25T20:34:42.768Z,82.10
2022-12-25T20:37:12.124Z,82.19
2022-12-25T20:39:40.818Z,81.95
2022-12-25T20:42:19.983Z,82.08
2022-12-25T20:44:47.858Z,82.06
2022-12-25T20:47:16.036Z,82.03
2022-12-25T20:49:43.790Z,82.04
2022-12-25T20:52:15.711Z,81.97
2022-12-25T20:54:43.654Z,81.92
2022-12-25T20:57:13.066Z,81.90
2022-12-25T20:59:43.245Z,81.80
2022-12-25T21:02:35.955Z,81.88
2022-12-25T21:04:59.772Z,82.00
2022-12-25T21:07:27.901Z,81.87
2022-12-25T21:09:55.711Z,81.88
2022-12-25T21:12:24.613Z,81.95
2022-12-25T21:14:55.753Z,81.89
2022-12-25T21:17:23.839Z,82.10
2022-12-25T21:19:54.762Z,81.94
2022-12-25T21:22:22.930Z,81.96
2022-12-25T21:24:52.244Z,82.09
2022-12-25T21:27:20.422Z,82.01
2022-12-25T21:29:48.513Z,81.96
2022-12-25T21:32:34.102Z,81.96
2022-12-25T21:35:02.143Z,82.03
2022-12-25T21:37:32.463Z,82.04
2022-12-25T21:40:00.554Z,82.11
2022-12-25T21:42:29.123Z,82.03
2022-12-25T21:44:58.465Z,82.01
2022-12-25T21:47:26.501Z,82.04
2022-12-25T21:50:38.903Z,82.02
2022-12-25T21:53:15.317Z,82.01
2022-12-25T21:55:54.730Z,82.07
2022-12-25T21:58:22.915Z,81.95
2022-12-25T22:00:53.887Z,81.91
2022-12-25T22:03:23.440Z,81.92
2022-12-25T22:06:16.071Z,82.02
2022-12-25T22:08:48.759Z,81.90
2022-12-25T22:11:38.096Z,81.91
2022-12-25T22:14:52.928Z,82.05
2022-12-25T22:17:35.141Z,82.00
2022-12-25T22:20:03.695Z,81.88
2022-12-25T22:22:32.997Z,82.05
2022-12-25T22:25:02.083Z,82.02
2022-12-25T22:27:32.216Z,82.15
2022-12-25T22:30:00.583Z,82.02
2022-12-25T22:32:28.872Z,82.00
2022-12-25T22:34:56.949Z,81.92
2022-12-25T22:37:25.522Z,82.02
2022-12-25T22:39:53.495Z,82.08
2022-12-25T22:42:21.972Z,81.97
2022-12-25T22:44:49.964Z,82.05
2022-12-25T22:47:19.047Z,82.10
2022-12-25T22:49:52.481Z,82.10
2022-12-25T22:52:20.565Z,82.05
2022-12-25T22:54:51.257Z,82.00
2022-12-25T22:57:19.556Z,81.93
2022-12-25T22:59:49.855Z,82.02
2022-12-25T23:02:19.665Z,82.08
2022-12-25T23:04:52.195Z,82.02
2022-12-25T23:07:22.617Z,81.97
2022-12-25T23:09:50.919Z,81.97
2022-12-25T23:12:37.228Z,82.00
2022-12-25T23:15:08.300Z,81.99
2022-12-25T23:17:55.895Z,81.93
2022-12-25T23:20:42.301Z,82.03
2022-12-25T23:23:31.429Z,82.08
2022-12-25T23:26:09.695Z,82.15
2022-12-25T23:28:57.332Z,82.04
2022-12-25T23:31:31.774Z,82.09
2022-12-25T23:34:01.067Z,82.11
2022-12-25T23:36:29.017Z,82.01
2022-12-25T23:38:57.631Z,81.96
2022-12-25T23:41:28.460Z,82.13
2022-12-25T23:43:56.756Z,82.09
2022-12-25T23:46:24.634Z,82.19
2022-12-25T23:48:52.557Z,82.21
2022-12-25T23:51:20.427Z,82.21
2022-12-25T23:53:50.030Z,82.18
2022-12-25T23:56:18.155Z,82.22
2022-12-25T23:58:51.180Z,82.10
